Kezdőlap
METAR-TAF:

METAR-TAF

Repülőterek :

Hakodatei repülőtér

Hakodate, Japán

földrajzi szélesség: 41-46N, földrajzi hosszúság: 140-49E, magasság: 33 m

Jelenlegi meteorológiai megfigyelések

A jelentés 43 perccel ezelõtt készült, 00:00 UTC
Északnyugati szél 15 kt
Hőmérséklet 0°C
Páratartalom 47%
Légköri nyomás 1023 hPa
Látótávolság 10 km, vagy több
Kevés felhő 3000 lábon

METAR: RJCH 280000Z 32015KT 9999 FEW030 M00/M10 Q1023

Idő: 09:43 (00:43 UTC)

Előrejelzés

A jelentés 1 órával és 37 perccel ezelõtt készült, 23:06 UTC
Az előrejelzés 28-én 00 óra UTC és 29-én 06 óra UTC között érvényes
Északnyugati szél 13 kt
Látótávolság 10 km, vagy több
Kevés felhő 2000 lábon
Szórványos felhőzet 4000 lábon

TAF: RJCH 272306Z 2800/2906 32013KT 9999 FEW020 SCT040

Meteorológiai megfigyelések és előrejelzések több, mint 4000 repülőtéren (METAR és TAF jelentéseket).

A térképen piros és sárga pontok jelzik az elérhető meteorológiai állomásokat.

Mozgassa az egeret a pont fölött, hogy megjelenjen az állomás neve.

Azután kattintson az időjárási megfigyelések és előrejelzések megtekintéséhez.

A térkép megváltoztatása: kattintson a fekete keresztel jelölt zöld gombra ráközelítéshez, a vonallal jelölt zöld gombra távolításhoz, vagy a zöld nyilakra a szomszédos térképek eléréséhez.


METAR-TAF: